Sant Feliu de Llobregat, Spain
Current Conditions -  °F | °C
As of 10:00 PM on Saturday 22 Nov 2014 (Local Time) from LEBL Reporting Station
Broken Clouds Broken Clouds  
Wind Chill: 17°   Ceiling: 600
Heat Index: 17°   Visibility: 4mi
Dew Point: 15°   Wind: 6mph
Humidity: 88%   Direction: 20°NNE
Pressure: 30.06"   Gusts: NA
Location:  41.38°N, 2.05°E
Report Text: LEBL 222100Z 02005KT 6000 FEW005 BKN006 17/15 Q1018 NOSIG
Loading
Personal Weather Stations






























Interactive Weather Map New forecast layout! Learn more

10-Day Weather Forecast

Advertisements
Track Severe Weather on mobile